Wekiva Springs, Florida
Current Conditions -  °F | °C
As of 3:53 AM on Monday 20 Oct 2014 (Local Time) from KORL Reporting Station
Clear Clear  
Wind Chill: 21°   Ceiling: Unl
Heat Index: 21°   Visibility: 10mi
Dew Point: 18°   Wind: 3mph
Humidity: 84%   Direction: 360°N
Pressure: 30.02"   Gusts: NA
Location:  28.7°N, 81.42°W
Report Text: KORL 200753Z AUTO 36003KT 10SM CLR 21/18 A3002 RMK AO2 SLP169 T02110183
Loading
Personal Weather Stations






























Interactive Weather Map
Tropical Storm Tracking
New forecast layout! Learn more

10-Day Weather Forecast

Advertisements
Track Severe Weather on mobile